createdAt,value
2023-01-01T00:00:07.462Z,174.00
2023-01-01T00:02:37.803Z,173.97
2023-01-01T00:05:06.837Z,174.37
2023-01-01T00:07:36.054Z,174.50
2023-01-01T00:10:26.796Z,174.20
2023-01-01T00:12:55.498Z,174.57
2023-01-01T00:15:23.580Z,174.07
2023-01-01T00:17:51.414Z,174.30
2023-01-01T00:20:19.535Z,174.00
2023-01-01T00:22:56.673Z,173.90
2023-01-01T00:25:25.209Z,174.03
2023-01-01T00:27:53.123Z,174.60
2023-01-01T00:30:20.982Z,174.07
2023-01-01T00:32:54.588Z,175.03
2023-01-01T00:35:25.470Z,174.13
2023-01-01T00:37:55.379Z,174.47
2023-01-01T00:40:23.473Z,173.67
2023-01-01T00:42:51.310Z,173.30
2023-01-01T00:45:22.344Z,173.07
2023-01-01T00:47:51.757Z,173.97
2023-01-01T00:50:20.139Z,173.27
2023-01-01T00:52:48.970Z,173.40
2023-01-01T00:55:18.780Z,173.57
2023-01-01T00:57:46.600Z,174.20
2023-01-01T01:00:16.005Z,172.40
2023-01-01T01:02:43.960Z,173.63
2023-01-01T01:05:11.935Z,173.50
2023-01-01T01:07:40.193Z,173.27
2023-01-01T01:10:09.511Z,173.63
2023-01-01T01:12:38.979Z,173.27
2023-01-01T01:15:08.832Z,172.17
2023-01-01T01:17:37.232Z,173.17
2023-01-01T01:20:06.417Z,174.27
2023-01-01T01:22:35.501Z,173.53
2023-01-01T01:25:03.679Z,172.97
2023-01-01T01:27:31.583Z,174.17
2023-01-01T01:30:00.780Z,173.97
2023-01-01T01:32:28.593Z,174.47
2023-01-01T01:34:56.487Z,173.37
2023-01-01T01:37:24.329Z,174.23
2023-01-01T01:39:54.132Z,173.63
2023-01-01T01:42:23.119Z,174.33
2023-01-01T01:44:57.005Z,173.70
2023-01-01T01:47:33.283Z,172.47
2023-01-01T01:50:07.682Z,173.47
2023-01-01T01:52:38.435Z,173.13
2023-01-01T01:55:09.195Z,173.30
2023-01-01T01:57:38.821Z,172.90
2023-01-01T02:00:11.355Z,173.07
2023-01-01T02:02:49.451Z,173.07
2023-01-01T02:05:19.577Z,173.20
2023-01-01T02:07:48.168Z,173.37
2023-01-01T02:10:16.109Z,174.33
2023-01-01T02:12:44.007Z,173.40
2023-01-01T02:15:11.962Z,173.73
2023-01-01T02:17:53.527Z,174.33
2023-01-01T02:20:42.347Z,173.93
2023-01-01T02:23:32.560Z,173.63
2023-01-01T02:26:23.471Z,173.80
2023-01-01T02:29:00.257Z,173.83
2023-01-01T02:31:33.708Z,173.17
2023-01-01T02:34:04.070Z,173.73
2023-01-01T02:36:34.134Z,172.80
2023-01-01T02:39:05.073Z,174.50
2023-01-01T02:41:39.720Z,174.03
2023-01-01T02:44:09.114Z,174.00
2023-01-01T02:46:37.552Z,174.17
2023-01-01T02:49:10.296Z,173.87
2023-01-01T02:51:49.095Z,173.40
2023-01-01T02:54:30.880Z,173.20
2023-01-01T02:57:09.230Z,174.07
2023-01-01T03:00:09.203Z,173.77
2023-01-01T03:02:50.740Z,172.63
2023-01-01T03:05:26.401Z,173.90
2023-01-01T03:08:03.472Z,172.67
2023-01-01T03:10:41.162Z,174.10
2023-01-01T03:13:18.341Z,174.17
2023-01-01T03:15:59.708Z,173.60
2023-01-01T03:18:34.575Z,174.20
2023-01-01T03:21:06.177Z,173.70
2023-01-01T03:23:38.306Z,174.30
2023-01-01T03:26:10.503Z,173.87
2023-01-01T03:28:44.699Z,174.37
2023-01-01T03:31:19.831Z,174.13
2023-01-01T03:33:50.599Z,173.70
2023-01-01T03:36:23.929Z,174.20
2023-01-01T03:38:56.208Z,174.83
2023-01-01T03:41:28.144Z,174.77
2023-01-01T03:44:04.954Z,174.00
2023-01-01T03:46:37.393Z,174.23
2023-01-01T03:49:07.605Z,174.40
2023-01-01T03:51:58.069Z,173.87
2023-01-01T03:54:37.321Z,174.43
2023-01-01T03:57:11.776Z,174.33
2023-01-01T03:59:44.926Z,174.50
2023-01-01T04:02:19.948Z,174.87
2023-01-01T04:04:49.048Z,174.57
2023-01-01T04:07:17.188Z,174.57
2023-01-01T04:09:50.899Z,175.30
2023-01-01T04:12:20.061Z,175.20
2023-01-01T04:14:47.967Z,175.77
2023-01-01T04:17:17.167Z,175.87
2023-01-01T04:19:48.856Z,175.80
2023-01-01T04:22:23.148Z,175.67
2023-01-01T04:24:50.990Z,175.37
2023-01-01T04:27:18.925Z,176.03
2023-01-01T04:29:46.746Z,176.20
2023-01-01T04:32:14.626Z,177.03
2023-01-01T04:34:43.803Z,175.20
2023-01-01T04:37:13.647Z,174.40
2023-01-01T04:39:41.761Z,175.70
2023-01-01T04:42:09.635Z,175.17
2023-01-01T04:44:37.468Z,175.27
2023-01-01T04:47:05.722Z,174.90
2023-01-01T04:49:33.522Z,174.37
2023-01-01T04:52:02.847Z,175.87
2023-01-01T04:54:30.661Z,175.27
2023-01-01T04:56:58.480Z,175.10
2023-01-01T04:59:26.382Z,175.50
2023-01-01T05:01:54.327Z,174.30
2023-01-01T05:04:22.352Z,174.63
2023-01-01T05:06:50.179Z,174.27
2023-01-01T05:09:19.373Z,174.20
2023-01-01T05:11:47.217Z,174.93
2023-01-01T05:14:15.042Z,174.03
2023-01-01T05:16:42.918Z,174.80
2023-01-01T05:19:11.647Z,174.07
2023-01-01T05:21:41.569Z,175.00
2023-01-01T05:24:11.148Z,175.07
2023-01-01T05:26:42.962Z,175.80
2023-01-01T05:29:16.414Z,175.30
2023-01-01T05:31:45.861Z,175.07
2023-01-01T05:34:13.936Z,175.40
2023-01-01T05:36:41.882Z,174.73
2023-01-01T05:39:11.807Z,175.07
2023-01-01T05:41:41.059Z,174.87
2023-01-01T05:44:10.363Z,174.27
2023-01-01T05:46:38.614Z,175.10
2023-01-01T05:49:06.480Z,175.67
2023-01-01T05:54:01.099Z,174.97
2023-01-01T05:56:29.040Z,175.57
2023-01-01T05:58:58.574Z,175.03
2023-01-01T06:01:29.220Z,175.33
2023-01-01T06:03:58.392Z,175.33
2023-01-01T06:06:28.548Z,175.47
2023-01-01T06:08:58.662Z,174.50
2023-01-01T06:14:30.741Z,174.90
2023-01-01T06:16:58.584Z,175.00
2023-01-01T06:19:26.398Z,175.63
2023-01-01T06:21:54.248Z,174.73
2023-01-01T06:24:22.086Z,172.57
2023-01-01T06:26:49.954Z,171.30
2023-01-01T06:29:18.065Z,171.50
2023-01-01T06:31:47.234Z,170.80
2023-01-01T06:34:15.092Z,171.37
2023-01-01T06:36:42.920Z,169.70
2023-01-01T06:39:10.753Z,169.87
2023-01-01T06:41:38.587Z,169.37
2023-01-01T06:44:06.725Z,169.27
2023-01-01T06:46:36.903Z,169.60
2023-01-01T06:49:08.065Z,168.63
2023-01-01T06:51:39.507Z,169.13
2023-01-01T06:54:08.912Z,169.97
2023-01-01T06:56:37.856Z,169.73
2023-01-01T06:59:06.337Z,168.53
2023-01-01T07:01:36.606Z,170.30
2023-01-01T07:04:08.670Z,170.07
2023-01-01T07:06:36.976Z,169.53
2023-01-01T07:09:05.064Z,168.47
2023-01-01T07:11:33.356Z,169.63
2023-01-01T07:14:02.619Z,170.27
2023-01-01T07:16:30.555Z,169.07
2023-01-01T07:18:58.422Z,169.33
2023-01-01T07:21:30.979Z,169.57
2023-01-01T07:24:00.512Z,169.53
2023-01-01T07:26:29.794Z,169.00
2023-01-01T07:29:04.477Z,170.20
2023-01-01T07:31:35.609Z,169.40
2023-01-01T07:34:03.567Z,169.03
2023-01-01T07:36:32.802Z,169.93
2023-01-01T07:39:00.669Z,168.80
2023-01-01T07:41:28.528Z,168.50
2023-01-01T07:43:56.515Z,168.60
2023-01-01T07:46:24.612Z,168.00
2023-01-01T07:48:52.506Z,168.47
2023-01-01T07:51:20.449Z,168.80
2023-01-01T07:53:49.645Z,167.50
2023-01-01T07:56:17.532Z,168.33
2023-01-01T07:58:45.351Z,167.67
2023-01-01T08:01:14.425Z,167.57
2023-01-01T08:03:42.362Z,167.77
2023-01-01T08:06:11.551Z,167.63
2023-01-01T08:08:40.749Z,168.17
2023-01-01T08:11:10.259Z,166.93
2023-01-01T08:13:38.140Z,167.17
2023-01-01T08:16:07.108Z,167.07
2023-01-01T08:18:35.090Z,166.80
2023-01-01T08:21:03.457Z,168.03
2023-01-01T08:23:31.512Z,167.50
2023-01-01T08:26:03.533Z,167.37
2023-01-01T08:28:33.092Z,166.83
2023-01-01T08:31:01.114Z,166.60
2023-01-01T08:33:30.292Z,167.17
2023-01-01T08:35:58.300Z,166.93
2023-01-01T08:38:26.260Z,167.00
2023-01-01T08:40:54.412Z,167.03
2023-01-01T08:43:22.281Z,166.63
2023-01-01T08:45:52.332Z,167.70
2023-01-01T08:48:24.386Z,167.00
2023-01-01T08:50:57.563Z,166.90
2023-01-01T08:53:25.392Z,167.50
2023-01-01T08:55:59.937Z,166.23
2023-01-01T08:58:28.500Z,166.43
2023-01-01T09:00:59.362Z,166.60
2023-01-01T09:03:27.382Z,166.17
2023-01-01T09:05:55.546Z,166.27
2023-01-01T09:08:23.924Z,166.13
2023-01-01T09:10:53.392Z,166.27
2023-01-01T09:13:23.632Z,166.83
2023-01-01T09:15:51.752Z,166.47
2023-01-01T09:18:21.075Z,165.10
2023-01-01T09:20:48.957Z,165.27
2023-01-01T09:23:16.910Z,165.67
2023-01-01T09:25:44.717Z,165.80
2023-01-01T09:28:14.695Z,164.37
2023-01-01T09:30:42.572Z,164.70
2023-01-01T09:33:10.396Z,164.27
2023-01-01T09:35:39.592Z,163.87
2023-01-01T09:38:07.422Z,164.17
2023-01-01T09:40:51.379Z,165.03
2023-01-01T09:43:34.762Z,163.97
2023-01-01T09:46:06.394Z,163.33
2023-01-01T09:48:37.368Z,163.97
2023-01-01T09:51:14.459Z,163.67
2023-01-01T09:53:45.872Z,164.33
2023-01-01T09:56:20.123Z,163.87
2023-01-01T09:58:48.375Z,163.53
2023-01-01T10:01:27.931Z,163.73
2023-01-01T10:04:02.918Z,163.57
2023-01-01T10:06:34.921Z,164.20
2023-01-01T10:09:14.386Z,164.07
2023-01-01T10:11:51.936Z,163.37
2023-01-01T10:14:31.548Z,163.10
2023-01-01T10:17:03.149Z,163.50
2023-01-01T10:19:36.659Z,162.70
2023-01-01T10:22:10.111Z,162.90
2023-01-01T10:24:46.040Z,163.30
2023-01-01T10:27:28.992Z,162.87
2023-01-01T10:30:04.254Z,163.20
2023-01-01T10:32:36.410Z,162.77
2023-01-01T10:35:12.623Z,162.63
2023-01-01T10:37:42.977Z,162.20
2023-01-01T10:40:17.726Z,162.50
2023-01-01T10:42:51.443Z,162.77
2023-01-01T10:45:21.709Z,162.37
2023-01-01T10:48:15.760Z,163.00
2023-01-01T10:50:46.797Z,162.97
2023-01-01T10:53:29.250Z,162.03
2023-01-01T10:56:16.054Z,162.37
2023-01-01T10:58:47.018Z,162.67
2023-01-01T11:01:24.338Z,162.03
2023-01-01T11:03:57.969Z,162.63
2023-01-01T11:06:27.321Z,162.70
2023-01-01T11:08:58.316Z,162.93
2023-01-01T11:11:31.705Z,163.07
2023-01-01T11:14:04.275Z,162.63
2023-01-01T11:16:32.982Z,162.03
2023-01-01T11:19:04.466Z,163.00
2023-01-01T11:21:32.676Z,163.47
2023-01-01T11:24:22.743Z,163.40
2023-01-01T11:26:55.254Z,162.97
2023-01-01T11:29:28.400Z,163.37
2023-01-01T11:31:57.924Z,163.13
2023-01-01T11:34:31.983Z,162.70
2023-01-01T11:37:22.747Z,163.57
2023-01-01T11:39:54.228Z,163.43
2023-01-01T11:42:25.328Z,163.17
2023-01-01T11:44:55.442Z,163.73
2023-01-01T11:47:27.798Z,163.90
2023-01-01T11:49:57.924Z,164.10
2023-01-01T11:52:35.035Z,163.30
2023-01-01T11:55:15.623Z,163.70
2023-01-01T11:57:48.835Z,163.27
2023-01-01T12:00:17.391Z,163.53
2023-01-01T12:02:51.828Z,163.40
2023-01-01T12:05:24.713Z,163.17
2023-01-01T12:07:53.591Z,163.80
2023-01-01T12:10:26.541Z,163.37
2023-01-01T12:12:59.431Z,163.07
2023-01-01T12:15:31.542Z,163.60
2023-01-01T12:18:04.658Z,163.63
2023-01-01T12:20:36.044Z,163.57
2023-01-01T12:23:04.054Z,164.47
2023-01-01T12:25:40.060Z,164.20
2023-01-01T12:28:31.596Z,164.53
2023-01-01T12:31:08.864Z,164.90
2023-01-01T12:33:59.319Z,164.70
2023-01-01T12:36:39.354Z,164.83
2023-01-01T12:39:57.356Z,165.53
2023-01-01T12:42:40.008Z,164.83
2023-01-01T12:45:31.279Z,165.77
2023-01-01T12:48:09.818Z,165.17
2023-01-01T12:50:51.428Z,165.20
2023-01-01T12:53:32.789Z,164.57
2023-01-01T12:56:23.221Z,164.70
2023-01-01T12:58:58.143Z,164.57
2023-01-01T13:01:33.061Z,163.90
2023-01-01T13:04:03.656Z,164.83
2023-01-01T13:06:38.601Z,164.07
2023-01-01T13:09:12.630Z,164.13
2023-01-01T13:11:45.244Z,164.27
2023-01-01T13:14:15.036Z,164.17
2023-01-01T13:16:44.481Z,164.63
2023-01-01T13:19:27.080Z,164.63
2023-01-01T13:21:55.234Z,165.40
2023-01-01T13:24:24.723Z,165.90
2023-01-01T13:26:53.178Z,165.40
2023-01-01T13:29:47.241Z,166.57
2023-01-01T13:32:16.596Z,165.93
2023-01-01T13:35:17.525Z,166.80
2023-01-01T13:37:47.831Z,166.87
2023-01-01T13:40:48.293Z,167.20
2023-01-01T13:43:38.380Z,167.97
2023-01-01T13:46:12.424Z,167.97
2023-01-01T13:49:19.716Z,167.13
2023-01-01T13:52:08.185Z,167.37
2023-01-01T13:55:15.112Z,168.20
2023-01-01T13:58:06.742Z,167.83
2023-01-01T14:00:47.934Z,167.93
2023-01-01T14:03:19.676Z,168.53
2023-01-01T14:05:52.189Z,168.20
2023-01-01T14:08:31.083Z,168.27
2023-01-01T14:11:02.026Z,168.20
2023-01-01T14:13:32.472Z,168.73
2023-01-01T14:16:03.513Z,168.33
2023-01-01T14:18:37.132Z,168.80
2023-01-01T14:21:10.468Z,168.67
2023-01-01T14:23:42.756Z,168.37
2023-01-01T14:26:13.360Z,168.53
2023-01-01T14:28:41.705Z,168.57
2023-01-01T14:31:13.102Z,168.73
2023-01-01T14:33:42.350Z,168.73
2023-01-01T14:36:18.522Z,168.27
2023-01-01T14:38:47.946Z,168.83
2023-01-01T14:41:22.574Z,168.67
2023-01-01T14:43:52.659Z,167.87
2023-01-01T14:46:23.285Z,167.93
2023-01-01T14:48:55.101Z,168.57
2023-01-01T14:51:25.457Z,168.77
2023-01-01T14:53:54.790Z,168.23
2023-01-01T14:56:25.787Z,168.50
2023-01-01T14:58:54.043Z,168.40
2023-01-01T15:01:25.504Z,168.30
2023-01-01T15:04:00.206Z,168.33
2023-01-01T15:06:29.202Z,167.97
2023-01-01T15:08:57.867Z,168.83
2023-01-01T15:11:29.256Z,168.07
2023-01-01T15:14:00.067Z,168.83
2023-01-01T15:16:31.091Z,168.33
2023-01-01T15:19:18.038Z,168.17
2023-01-01T15:21:48.060Z,168.63
2023-01-01T15:24:20.291Z,168.93
2023-01-01T15:26:51.787Z,167.97
2023-01-01T15:29:27.009Z,168.57
2023-01-01T15:31:57.642Z,167.87
2023-01-01T15:34:30.154Z,168.53
2023-01-01T15:37:08.755Z,168.90
2023-01-01T15:39:47.344Z,168.07
2023-01-01T15:42:39.831Z,167.70
2023-01-01T15:45:21.848Z,168.33
2023-01-01T15:47:50.417Z,168.53
2023-01-01T15:50:24.668Z,169.17
2023-01-01T15:52:56.087Z,167.93
2023-01-01T15:55:26.440Z,168.40
2023-01-01T15:57:54.603Z,168.30
2023-01-01T16:00:24.626Z,168.57
2023-01-01T16:02:55.081Z,167.90
2023-01-01T16:05:26.579Z,168.67
2023-01-01T16:08:02.739Z,168.03
2023-01-01T16:10:31.676Z,168.50
2023-01-01T16:12:59.943Z,168.37
2023-01-01T16:15:28.114Z,167.47
2023-01-01T16:17:56.479Z,168.70
2023-01-01T16:20:26.173Z,168.20
2023-01-01T16:22:54.198Z,167.57
2023-01-01T16:25:23.791Z,168.33
2023-01-01T16:27:51.611Z,168.30
2023-01-01T16:30:19.592Z,167.93
2023-01-01T16:32:48.874Z,168.53
2023-01-01T16:35:16.941Z,169.13
2023-01-01T16:37:46.089Z,168.27
2023-01-01T16:40:14.393Z,168.57
2023-01-01T16:42:42.215Z,168.40
2023-01-01T16:45:17.251Z,168.13
2023-01-01T16:47:45.356Z,168.37
2023-01-01T16:50:13.338Z,168.93
2023-01-01T16:52:44.858Z,168.87
2023-01-01T16:55:14.983Z,169.20
2023-01-01T16:57:43.309Z,169.10
2023-01-01T17:00:12.457Z,168.83
2023-01-01T17:02:40.595Z,168.90
2023-01-01T17:05:09.396Z,168.27
2023-01-01T17:07:37.296Z,168.10
2023-01-01T17:10:05.857Z,168.83
2023-01-01T17:12:35.091Z,168.73
2023-01-01T17:15:02.905Z,168.17
2023-01-01T17:17:30.728Z,169.10
2023-01-01T17:19:58.548Z,168.93
2023-01-01T17:22:30.705Z,168.80
2023-01-01T17:25:01.794Z,169.27
2023-01-01T17:27:29.668Z,169.27
2023-01-01T17:29:58.820Z,168.60
2023-01-01T17:32:26.789Z,169.03
2023-01-01T17:34:54.627Z,168.83
2023-01-01T17:37:22.446Z,168.17
2023-01-01T17:39:50.268Z,168.30
2023-01-01T17:42:18.159Z,168.23
2023-01-01T17:44:46.019Z,169.33
2023-01-01T17:47:15.197Z,168.97
2023-01-01T17:49:43.541Z,167.87
2023-01-01T17:52:11.812Z,168.77
2023-01-01T17:54:39.626Z,168.53
2023-01-01T17:57:07.467Z,168.17
2023-01-01T17:59:35.292Z,168.23
2023-01-01T18:02:03.235Z,168.73
2023-01-01T18:04:32.723Z,168.93
2023-01-01T18:07:05.930Z,167.37
2023-01-01T18:09:34.293Z,168.30
2023-01-01T18:12:02.134Z,168.50
2023-01-01T18:14:30.046Z,168.10
2023-01-01T18:16:58.034Z,168.47
2023-01-01T18:19:27.587Z,168.50
2023-01-01T18:21:56.753Z,167.83
2023-01-01T18:24:24.578Z,168.27
2023-01-01T18:26:52.453Z,169.20
2023-01-01T18:29:20.696Z,167.80
2023-01-01T18:31:48.702Z,168.23
2023-01-01T18:34:16.534Z,168.57
2023-01-01T18:36:46.823Z,168.37
2023-01-01T18:39:21.731Z,168.30
2023-01-01T18:42:12.704Z,167.70
2023-01-01T18:44:41.201Z,168.00
2023-01-01T18:47:14.800Z,168.27
2023-01-01T18:49:48.560Z,168.60
2023-01-01T18:52:23.053Z,168.00
2023-01-01T18:55:07.702Z,167.80
2023-01-01T18:57:36.053Z,168.27
2023-01-01T19:00:17.470Z,168.50
2023-01-01T19:02:53.205Z,168.90
2023-01-01T19:05:24.554Z,168.53
2023-01-01T19:07:57.116Z,168.17
2023-01-01T19:10:29.596Z,168.53
2023-01-01T19:12:57.531Z,168.80
2023-01-01T19:15:25.352Z,168.87
2023-01-01T19:17:55.388Z,168.80
2023-01-01T19:20:24.659Z,169.30
2023-01-01T19:22:52.456Z,169.00
2023-01-01T19:25:40.657Z,168.00
2023-01-01T19:28:32.189Z,167.53
2023-01-01T19:31:00.526Z,168.47
2023-01-01T19:33:29.701Z,168.30
2023-01-01T19:35:58.464Z,167.73
2023-01-01T19:38:26.332Z,168.50
2023-01-01T19:40:55.491Z,168.07
2023-01-01T19:43:23.365Z,168.40
2023-01-01T19:45:51.415Z,169.03
2023-01-01T19:48:19.269Z,168.53
2023-01-01T19:50:48.065Z,168.50
2023-01-01T19:53:16.136Z,168.87
2023-01-01T19:55:44.578Z,168.87
2023-01-01T19:58:13.786Z,167.80
2023-01-01T20:00:41.627Z,168.20
2023-01-01T20:03:51.412Z,167.90
2023-01-01T20:05:57.368Z,168.17
2023-01-01T20:08:26.774Z,167.63
2023-01-01T20:10:54.607Z,168.13
2023-01-01T20:13:23.872Z,168.07
2023-01-01T20:15:51.774Z,168.93
2023-01-01T20:18:19.717Z,169.10
2023-01-01T20:21:05.803Z,169.00
2023-01-01T20:23:33.621Z,168.50
2023-01-01T20:26:01.443Z,168.40
2023-01-01T20:28:48.361Z,169.10
2023-01-01T20:31:16.235Z,168.90
2023-01-01T20:33:44.539Z,168.77
2023-01-01T20:36:29.936Z,168.13
2023-01-01T20:38:57.749Z,168.17
2023-01-01T20:41:25.614Z,167.73
2023-01-01T20:43:56.533Z,168.43
2023-01-01T20:46:25.106Z,168.53
2023-01-01T20:48:52.998Z,168.70
2023-01-01T20:51:20.925Z,167.63
2023-01-01T20:53:49.229Z,168.73
2023-01-01T20:56:17.108Z,168.30
2023-01-01T20:58:49.338Z,167.83
2023-01-01T21:01:21.394Z,168.10
2023-01-01T21:03:49.308Z,168.27
2023-01-01T21:06:23.563Z,168.37
2023-01-01T21:08:52.414Z,168.10
2023-01-01T21:11:20.326Z,167.60
2023-01-01T21:13:48.810Z,168.20
2023-01-01T21:16:19.072Z,168.47
2023-01-01T21:18:49.672Z,168.20
2023-01-01T21:21:19.949Z,167.63
2023-01-01T21:23:48.488Z,167.93
2023-01-01T21:26:19.077Z,168.67
2023-01-01T21:28:49.188Z,168.63
2023-01-01T21:31:17.278Z,169.10
2023-01-01T21:33:47.743Z,168.17
2023-01-01T21:36:19.120Z,168.07
2023-01-01T21:38:47.782Z,168.23
2023-01-01T21:41:22.241Z,168.57
2023-01-01T21:43:51.918Z,168.47
2023-01-01T21:46:29.307Z,168.13
2023-01-01T21:49:01.944Z,168.03
2023-01-01T21:51:32.427Z,168.63
2023-01-01T21:54:18.289Z,167.50
2023-01-01T21:56:52.841Z,168.27
2023-01-01T21:59:28.560Z,167.97
2023-01-01T22:02:09.176Z,168.27
2023-01-01T22:04:41.912Z,168.17
2023-01-01T22:10:16.107Z,167.80
2023-01-01T22:12:44.184Z,168.47
2023-01-01T22:15:29.903Z,168.40
2023-01-01T22:18:14.832Z,168.30
2023-01-01T22:20:46.179Z,167.77
2023-01-01T22:23:25.054Z,167.93
2023-01-01T22:25:53.501Z,167.70
2023-01-01T22:28:24.328Z,168.53
2023-01-01T22:30:56.220Z,167.83
2023-01-01T22:33:28.416Z,168.50
2023-01-01T22:35:58.724Z,168.93
2023-01-01T22:38:32.957Z,168.30
2023-01-01T22:41:02.084Z,169.53
2023-01-01T22:43:34.345Z,168.70
2023-01-01T22:46:12.129Z,169.07
2023-01-01T22:48:40.602Z,167.60
2023-01-01T22:51:18.388Z,167.90
2023-01-01T22:53:46.367Z,168.97
2023-01-01T22:56:14.508Z,169.07
2023-01-01T22:58:42.462Z,167.90
2023-01-01T23:01:10.389Z,167.97
2023-01-01T23:03:38.353Z,168.10
2023-01-01T23:06:07.008Z,168.03
2023-01-01T23:08:36.235Z,169.03
2023-01-01T23:11:04.261Z,168.50
2023-01-01T23:13:49.558Z,168.53
2023-01-01T23:16:17.433Z,168.03
2023-01-01T23:18:45.291Z,168.13
2023-01-01T23:21:22.727Z,168.53
2023-01-01T23:23:58.256Z,168.90
2023-01-01T23:26:26.701Z,168.47
2023-01-01T23:28:55.984Z,168.43
2023-01-01T23:31:26.775Z,168.47
2023-01-01T23:33:55.996Z,168.57
2023-01-01T23:36:24.048Z,169.33
2023-01-01T23:38:51.872Z,168.80
2023-01-01T23:41:22.339Z,168.43
2023-01-01T23:43:50.238Z,168.90
2023-01-01T23:46:19.752Z,168.03
2023-01-01T23:48:48.755Z,168.03
2023-01-01T23:51:17.859Z,168.63
2023-01-01T23:53:45.775Z,169.03
2023-01-01T23:56:13.670Z,168.60
2023-01-01T23:58:42.843Z,168.93
